createdAt,value
2022-09-04T00:01:45.340Z,16.30
2022-09-04T00:04:22.347Z,16.30
2022-09-04T00:07:01.462Z,16.20
2022-09-04T00:09:36.792Z,16.20
2022-09-04T00:12:08.660Z,16.20
2022-09-04T00:14:44.189Z,16.20
2022-09-04T00:17:21.142Z,16.20
2022-09-04T00:19:56.286Z,16.20
2022-09-04T00:22:32.798Z,16.10
2022-09-04T00:25:10.154Z,16.10
2022-09-04T00:27:45.242Z,16.20
2022-09-04T00:30:20.426Z,16.20
2022-09-04T00:32:56.360Z,16.10
2022-09-04T00:35:31.278Z,16.10
2022-09-04T00:38:03.689Z,16.10
2022-09-04T00:40:35.706Z,16.00
2022-09-04T00:43:38.448Z,16.00
2022-09-04T00:46:51.963Z,16.10
2022-09-04T00:49:45.820Z,16.00
2022-09-04T00:52:36.792Z,16.00
2022-09-04T00:55:21.910Z,15.90
2022-09-04T00:58:10.456Z,15.90
2022-09-04T01:00:39.428Z,15.90
2022-09-04T01:03:46.880Z,15.80
2022-09-04T01:06:32.808Z,15.90
2022-09-04T01:09:32.407Z,15.90
2022-09-04T01:12:13.553Z,15.90
2022-09-04T01:14:46.425Z,15.90
2022-09-04T01:17:25.902Z,15.90
2022-09-04T01:19:59.116Z,15.80
2022-09-04T01:23:08.621Z,15.80
2022-09-04T01:26:18.734Z,15.80
2022-09-04T01:29:06.121Z,15.80
2022-09-04T01:31:44.832Z,15.80
2022-09-04T01:34:29.664Z,15.80
2022-09-04T01:37:07.975Z,15.80
2022-09-04T01:39:38.710Z,15.80
2022-09-04T01:42:13.974Z,15.70
2022-09-04T01:44:43.919Z,15.80
2022-09-04T01:47:17.621Z,15.80
2022-09-04T01:49:54.846Z,15.70
2022-09-04T01:52:42.756Z,15.70
2022-09-04T01:55:20.805Z,15.70
2022-09-04T01:58:04.717Z,15.70
2022-09-04T02:00:39.540Z,15.70
2022-09-04T02:03:16.104Z,15.70
2022-09-04T02:06:01.701Z,15.70
2022-09-04T02:08:56.501Z,15.60
2022-09-04T02:11:27.833Z,15.60
2022-09-04T02:14:17.837Z,15.60
2022-09-04T02:17:04.224Z,15.50
2022-09-04T02:19:41.840Z,15.60
2022-09-04T02:22:20.388Z,15.50
2022-09-04T02:24:53.995Z,15.50
2022-09-04T02:27:30.382Z,15.50
2022-09-04T02:30:04.085Z,15.60
2022-09-04T02:32:39.985Z,15.50
2022-09-04T02:35:15.318Z,15.50
2022-09-04T02:37:53.791Z,15.50
2022-09-04T02:40:30.914Z,15.40
2022-09-04T02:43:18.196Z,15.40
2022-09-04T02:45:51.490Z,15.40
2022-09-04T02:48:29.232Z,15.40
2022-09-04T02:51:27.072Z,15.40
2022-09-04T02:54:03.717Z,15.30
2022-09-04T02:56:43.662Z,15.40
2022-09-04T02:59:33.626Z,15.30
2022-09-04T03:02:04.032Z,15.20
2022-09-04T03:04:40.501Z,15.20
2022-09-04T03:07:14.958Z,15.20
2022-09-04T03:09:47.588Z,15.20
2022-09-04T03:12:30.199Z,15.20
2022-09-04T03:15:05.285Z,15.20
2022-09-04T03:17:39.200Z,15.20
2022-09-04T03:20:12.951Z,15.10
2022-09-04T03:22:46.410Z,15.10
2022-09-04T03:25:40.195Z,15.20
2022-09-04T03:28:13.687Z,15.20
2022-09-04T03:30:42.425Z,15.00
2022-09-04T03:33:17.082Z,15.10
2022-09-04T03:35:56.469Z,15.10
2022-09-04T03:38:31.605Z,15.00
2022-09-04T03:41:11.278Z,15.00
2022-09-04T03:43:56.492Z,15.00
2022-09-04T03:46:40.975Z,15.00
2022-09-04T03:49:20.683Z,15.00
2022-09-04T03:52:00.391Z,15.00
2022-09-04T03:54:45.055Z,14.90
2022-09-04T03:57:31.638Z,14.90
2022-09-04T04:00:10.358Z,14.80
2022-09-04T04:03:02.478Z,14.80
2022-09-04T04:05:52.491Z,14.80
2022-09-04T04:08:38.085Z,14.70
2022-09-04T04:11:24.133Z,14.70
2022-09-04T04:14:17.835Z,14.70
2022-09-04T04:16:55.924Z,14.70
2022-09-04T04:19:46.081Z,14.60
2022-09-04T04:22:30.081Z,14.60
2022-09-04T04:25:16.467Z,14.60
2022-09-04T04:27:58.005Z,14.60
2022-09-04T04:30:26.395Z,14.50
2022-09-04T04:33:18.793Z,14.50
2022-09-04T04:35:55.793Z,14.50
2022-09-04T04:38:36.798Z,14.40
2022-09-04T04:41:30.780Z,14.40
2022-09-04T04:44:10.337Z,14.40
2022-09-04T04:46:50.634Z,14.30
2022-09-04T04:49:43.445Z,14.30
2022-09-04T04:52:29.815Z,14.30
2022-09-04T04:55:22.072Z,14.30
2022-09-04T04:58:15.519Z,14.30
2022-09-04T05:00:48.295Z,14.30
2022-09-04T05:03:24.279Z,14.30
2022-09-04T05:06:01.118Z,14.30
2022-09-04T05:08:40.116Z,14.30
2022-09-04T05:11:16.035Z,14.40
2022-09-04T05:14:06.980Z,14.40
2022-09-04T05:16:51.182Z,14.50
2022-09-04T05:19:26.050Z,14.50
2022-09-04T05:22:00.847Z,14.50
2022-09-04T05:24:35.989Z,14.60
2022-09-04T05:27:12.265Z,14.60
2022-09-04T05:29:51.482Z,14.70
2022-09-04T05:32:26.127Z,14.70
2022-09-04T05:35:05.337Z,14.70
2022-09-04T05:37:38.835Z,14.80
2022-09-04T05:40:16.988Z,14.80
2022-09-04T05:42:58.922Z,14.90
2022-09-04T05:45:38.503Z,15.00
2022-09-04T05:48:17.588Z,15.10
2022-09-04T05:51:12.689Z,15.30
2022-09-04T05:54:00.360Z,15.30
2022-09-04T05:56:56.399Z,15.40
2022-09-04T05:59:45.711Z,15.50
2022-09-04T06:02:57.340Z,15.50
2022-09-04T06:05:47.840Z,15.60
2022-09-04T06:08:46.909Z,15.70
2022-09-04T06:11:51.403Z,15.90
2022-09-04T06:14:36.359Z,16.00
2022-09-04T06:17:24.495Z,15.90
2022-09-04T06:20:20.895Z,16.10
2022-09-04T06:23:09.084Z,16.20
2022-09-04T06:25:56.778Z,16.40
2022-09-04T06:28:49.638Z,16.50
2022-09-04T06:31:53.152Z,16.50
2022-09-04T06:34:30.434Z,16.60
2022-09-04T06:37:13.045Z,16.70
2022-09-04T06:40:02.887Z,16.80
2022-09-04T06:42:42.820Z,16.90
2022-09-04T06:45:21.339Z,17.00
2022-09-04T06:48:07.351Z,17.20
2022-09-04T06:50:46.684Z,17.30
2022-09-04T06:53:36.963Z,17.20
2022-09-04T06:56:16.831Z,17.40
2022-09-04T06:59:16.591Z,17.50
2022-09-04T07:02:01.274Z,17.50
2022-09-04T07:04:45.749Z,17.60
2022-09-04T07:07:23.679Z,17.90
2022-09-04T07:10:01.551Z,18.10
2022-09-04T07:12:57.987Z,18.10
2022-09-04T07:15:46.344Z,18.20
2022-09-04T07:18:34.999Z,18.30
2022-09-04T07:21:19.924Z,18.30
2022-09-04T07:23:57.785Z,18.40
2022-09-04T07:26:38.153Z,18.60
2022-09-04T07:29:27.864Z,18.70
2022-09-04T07:32:02.281Z,18.90
2022-09-04T07:34:40.654Z,18.80
2022-09-04T07:37:27.146Z,18.90
2022-09-04T07:40:04.380Z,18.90
2022-09-04T07:42:45.728Z,19.00
2022-09-04T07:45:27.802Z,19.10
2022-09-04T07:48:07.728Z,19.20
2022-09-04T07:50:41.407Z,19.20
2022-09-04T07:53:24.564Z,19.30
2022-09-04T07:55:56.995Z,19.30
2022-09-04T07:58:58.493Z,19.30
2022-09-04T08:01:41.029Z,19.50
2022-09-04T08:04:45.322Z,19.60
2022-09-04T08:07:20.843Z,19.70
2022-09-04T08:10:13.217Z,19.80
2022-09-04T08:13:05.734Z,19.90
2022-09-04T08:15:43.823Z,19.80
2022-09-04T08:18:53.204Z,19.80
2022-09-04T08:21:28.850Z,19.90
2022-09-04T08:24:20.230Z,19.90
2022-09-04T08:26:56.797Z,20.10
2022-09-04T08:29:51.616Z,20.10
2022-09-04T08:32:42.849Z,20.20
2022-09-04T08:35:23.160Z,20.40
2022-09-04T08:38:11.128Z,20.50
2022-09-04T08:41:06.905Z,20.70
2022-09-04T08:43:57.536Z,20.80
2022-09-04T08:47:04.859Z,20.90
2022-09-04T08:50:05.564Z,20.80
2022-09-04T08:53:10.163Z,20.90
2022-09-04T08:55:55.996Z,21.00
2022-09-04T08:59:12.708Z,21.00
2022-09-04T09:02:28.665Z,21.20
2022-09-04T09:05:33.396Z,21.30
2022-09-04T09:08:34.231Z,21.50
2022-09-04T09:11:43.300Z,21.40
2022-09-04T09:14:53.966Z,21.50
2022-09-04T09:17:37.287Z,21.50
2022-09-04T09:20:32.958Z,21.70
2022-09-04T09:23:26.257Z,21.60
2022-09-04T09:26:06.199Z,21.60
2022-09-04T09:29:22.146Z,21.60
2022-09-04T09:32:29.856Z,21.60
2022-09-04T09:35:55.643Z,21.70
2022-09-04T09:38:48.553Z,21.80
2022-09-04T09:42:07.320Z,21.80
2022-09-04T09:45:01.385Z,21.90
2022-09-04T09:48:09.758Z,22.00
2022-09-04T09:51:19.854Z,22.10
2022-09-04T09:54:21.328Z,22.20
2022-09-04T09:57:33.684Z,22.30
2022-09-04T10:00:12.936Z,22.40
2022-09-04T10:03:25.602Z,22.50
2022-09-04T10:06:44.667Z,22.50
2022-09-04T10:09:37.303Z,22.50
2022-09-04T10:12:43.450Z,22.50
2022-09-04T10:15:39.278Z,22.50
2022-09-04T10:18:39.477Z,22.60
2022-09-04T10:21:53.803Z,22.60
2022-09-04T10:25:03.265Z,22.60
2022-09-04T10:28:16.455Z,22.80
2022-09-04T10:31:19.698Z,22.80
2022-09-04T10:34:07.607Z,23.00
2022-09-04T10:36:46.821Z,23.10
2022-09-04T10:39:43.379Z,23.20
2022-09-04T10:42:31.808Z,23.30
2022-09-04T10:45:18.073Z,23.30
2022-09-04T10:48:30.954Z,23.30
2022-09-04T10:51:26.645Z,23.20
2022-09-04T10:54:40.135Z,23.10
2022-09-04T10:57:24.763Z,23.00
2022-09-04T11:00:07.054Z,23.10
2022-09-04T11:03:04.405Z,23.20
2022-09-04T11:05:54.091Z,23.20
2022-09-04T11:08:42.540Z,23.30
2022-09-04T11:11:25.278Z,23.30
2022-09-04T11:14:25.630Z,23.30
2022-09-04T11:17:17.505Z,23.50
2022-09-04T11:20:20.831Z,23.50
2022-09-04T11:23:19.253Z,23.50
2022-09-04T11:26:18.904Z,23.60
2022-09-04T11:29:04.606Z,23.80
2022-09-04T11:31:59.145Z,23.90
2022-09-04T11:34:55.619Z,23.80
2022-09-04T11:37:57.708Z,23.70
2022-09-04T11:41:02.661Z,23.90
2022-09-04T11:44:10.174Z,24.00
2022-09-04T11:47:20.658Z,24.10
2022-09-04T11:50:16.346Z,24.10
2022-09-04T11:53:02.987Z,24.00
2022-09-04T11:55:59.364Z,23.90
2022-09-04T11:58:50.874Z,23.90
2022-09-04T12:01:41.630Z,24.00
2022-09-04T12:04:31.622Z,24.10
2022-09-04T12:07:14.140Z,24.30
2022-09-04T12:10:06.289Z,24.40
2022-09-04T12:13:14.650Z,24.40
2022-09-04T12:16:17.059Z,24.40
2022-09-04T12:19:11.056Z,24.30
2022-09-04T12:22:19.778Z,24.40
2022-09-04T12:25:15.270Z,24.40
2022-09-04T12:28:16.954Z,24.50
2022-09-04T12:31:00.394Z,24.60
2022-09-04T12:34:04.581Z,24.70
2022-09-04T12:37:15.083Z,24.80
2022-09-04T12:40:09.135Z,24.90
2022-09-04T12:42:43.080Z,24.80
2022-09-04T12:45:21.995Z,24.60
2022-09-04T12:48:01.319Z,24.50
2022-09-04T12:50:41.742Z,24.50
2022-09-04T12:53:20.774Z,24.50
2022-09-04T12:56:03.061Z,24.50
2022-09-04T12:58:48.735Z,24.50
2022-09-04T13:01:31.951Z,24.60
2022-09-04T13:04:14.289Z,24.60
2022-09-04T13:06:56.921Z,24.50
2022-09-04T13:09:29.937Z,24.60
2022-09-04T13:12:11.004Z,24.50
2022-09-04T13:15:10.156Z,24.60
2022-09-04T13:17:49.085Z,24.70
2022-09-04T13:20:24.873Z,24.70
2022-09-04T13:23:05.926Z,24.60
2022-09-04T13:25:53.262Z,24.50
2022-09-04T13:28:35.685Z,24.60
2022-09-04T13:31:27.464Z,24.70
2022-09-04T13:34:02.788Z,24.80
2022-09-04T13:36:38.123Z,25.00
2022-09-04T13:39:41.098Z,25.00
2022-09-04T13:42:31.342Z,25.10
2022-09-04T13:45:07.262Z,25.10
2022-09-04T13:47:50.653Z,25.10
2022-09-04T13:50:25.933Z,25.10
2022-09-04T13:52:59.631Z,25.00
2022-09-04T13:55:30.524Z,25.00
2022-09-04T13:58:10.901Z,24.80
2022-09-04T14:00:45.792Z,24.80
2022-09-04T14:03:19.427Z,24.80
2022-09-04T14:05:47.894Z,24.90
2022-09-04T14:08:18.305Z,25.00
2022-09-04T14:11:09.187Z,25.10
2022-09-04T14:14:03.150Z,25.10
2022-09-04T14:16:36.624Z,25.20
2022-09-04T14:19:21.174Z,25.10
2022-09-04T14:22:14.956Z,25.20
2022-09-04T14:24:51.585Z,25.20
2022-09-04T14:27:26.989Z,25.20
2022-09-04T14:30:05.041Z,25.30
2022-09-04T14:32:46.742Z,25.20
2022-09-04T14:35:22.208Z,25.10
2022-09-04T14:38:19.243Z,25.00
2022-09-04T14:40:56.628Z,25.00
2022-09-04T14:43:37.613Z,25.00
2022-09-04T14:46:15.746Z,24.80
2022-09-04T14:48:51.042Z,24.80
2022-09-04T14:51:34.184Z,24.50
2022-09-04T14:54:03.603Z,24.50
2022-09-04T14:56:35.600Z,24.50
2022-09-04T14:59:13.755Z,24.50
2022-09-04T15:02:02.942Z,24.50
2022-09-04T15:04:39.744Z,24.60
2022-09-04T15:07:36.098Z,24.70
2022-09-04T15:10:15.135Z,24.80
2022-09-04T15:12:50.842Z,24.80
2022-09-04T15:15:25.452Z,24.80
2022-09-04T15:18:01.772Z,24.80
2022-09-04T15:20:36.963Z,24.80
2022-09-04T15:23:09.272Z,24.80
2022-09-04T15:25:59.064Z,24.80
2022-09-04T15:28:38.353Z,24.80
2022-09-04T15:31:16.056Z,24.90
2022-09-04T15:33:47.348Z,24.90
2022-09-04T15:36:20.735Z,24.80
2022-09-04T15:38:52.175Z,24.80
2022-09-04T15:41:27.816Z,24.80
2022-09-04T15:44:02.692Z,24.70
2022-09-04T15:46:43.960Z,24.80
2022-09-04T15:49:29.543Z,24.80
2022-09-04T15:52:10.499Z,24.70
2022-09-04T15:55:01.766Z,24.70
2022-09-04T15:57:40.004Z,24.80
2022-09-04T16:00:12.625Z,24.90
2022-09-04T16:02:54.880Z,25.00
2022-09-04T16:05:28.122Z,25.20
2022-09-04T16:08:04.150Z,25.20
2022-09-04T16:10:47.034Z,25.10
2022-09-04T16:13:41.456Z,25.20
2022-09-04T16:16:13.144Z,25.20
2022-09-04T16:18:51.799Z,25.10
2022-09-04T16:21:32.033Z,25.00
2022-09-04T16:24:09.202Z,24.90
2022-09-04T16:26:39.064Z,24.90
2022-09-04T16:29:15.344Z,24.80
2022-09-04T16:31:53.133Z,24.80
2022-09-04T16:34:24.314Z,24.70
2022-09-04T16:37:01.699Z,24.60
2022-09-04T16:39:41.296Z,24.50
2022-09-04T16:42:19.528Z,24.40
2022-09-04T16:44:52.150Z,24.30
2022-09-04T16:47:29.098Z,24.20
2022-09-04T16:50:05.757Z,24.10
2022-09-04T16:53:05.873Z,24.00
2022-09-04T16:55:48.205Z,23.90
2022-09-04T16:58:29.936Z,23.80
2022-09-04T17:01:14.430Z,23.80
2022-09-04T17:03:51.361Z,23.70
2022-09-04T17:06:30.311Z,23.60
2022-09-04T17:09:06.183Z,23.60
2022-09-04T17:11:43.985Z,23.50
2022-09-04T17:14:31.502Z,23.40
2022-09-04T17:17:12.443Z,23.30
2022-09-04T17:20:06.764Z,23.20
2022-09-04T17:29:02.054Z,23.20
2022-09-04T17:29:15.037Z,23.10
2022-09-04T17:29:24.760Z,23.00
2022-09-04T17:31:45.652Z,22.90
2022-09-04T17:40:35.921Z,22.80
2022-09-04T17:40:57.400Z,22.90
2022-09-04T17:41:31.052Z,22.80
2022-09-04T17:43:22.750Z,22.70
2022-09-04T17:46:10.258Z,22.60
2022-09-04T17:48:43.229Z,22.60
2022-09-04T17:51:19.057Z,22.50
2022-09-04T17:53:52.585Z,22.50
2022-09-04T17:56:26.660Z,22.40
2022-09-04T17:59:02.569Z,22.40
2022-09-04T18:01:36.522Z,22.30
2022-09-04T18:04:27.638Z,22.30
2022-09-04T18:07:21.906Z,22.30
2022-09-04T18:10:07.742Z,22.20
2022-09-04T18:12:41.669Z,22.10
2022-09-04T18:15:33.696Z,22.00
2022-09-04T18:18:13.672Z,22.00
2022-09-04T18:20:46.396Z,21.90
2022-09-04T18:23:48.172Z,21.90
2022-09-04T18:26:40.786Z,21.80
2022-09-04T18:32:13.479Z,21.70
2022-09-04T18:37:22.647Z,21.70
2022-09-04T18:37:24.420Z,21.60
2022-09-04T18:38:36.271Z,21.50
2022-09-04T18:44:56.661Z,21.50
2022-09-04T18:50:22.759Z,21.50
2022-09-04T18:50:29.198Z,21.40
2022-09-04T18:50:34.161Z,21.40
2022-09-04T18:52:58.360Z,21.30
2022-09-04T18:55:32.252Z,21.30
2022-09-04T18:58:28.792Z,21.20
2022-09-04T19:01:01.566Z,21.20
2022-09-04T19:03:39.344Z,21.10
2022-09-04T19:06:12.755Z,21.00
2022-09-04T19:08:48.551Z,21.00
2022-09-04T19:11:22.274Z,21.10
2022-09-04T19:13:56.981Z,21.00
2022-09-04T19:16:40.862Z,21.00
2022-09-04T19:19:17.273Z,20.90
2022-09-04T19:21:58.424Z,20.80
2022-09-04T19:24:40.654Z,20.80
2022-09-04T19:27:28.286Z,20.80
2022-09-04T19:30:20.102Z,20.70
2022-09-04T19:33:02.857Z,20.70
2022-09-04T19:35:38.095Z,20.70
2022-09-04T19:42:42.110Z,20.70
2022-09-04T19:45:59.673Z,20.60
2022-09-04T19:46:01.098Z,20.50
2022-09-04T19:46:57.531Z,20.50
2022-09-04T19:53:17.753Z,20.40
2022-09-04T19:53:24.087Z,20.40
2022-09-04T19:55:35.998Z,20.30
2022-09-04T19:58:10.398Z,20.30
2022-09-04T20:00:46.157Z,20.20
2022-09-04T20:03:29.349Z,20.20
2022-09-04T20:06:20.854Z,20.20
2022-09-04T20:08:55.755Z,20.20
2022-09-04T20:11:34.927Z,20.10
2022-09-04T20:14:14.659Z,20.10
2022-09-04T20:16:57.266Z,20.10
2022-09-04T20:19:31.170Z,20.10
2022-09-04T20:22:02.392Z,20.00
2022-09-04T20:24:39.572Z,20.00
2022-09-04T20:27:16.028Z,20.00
2022-09-04T20:29:54.859Z,19.90
2022-09-04T20:32:28.507Z,19.90
2022-09-04T20:35:13.680Z,19.80
2022-09-04T20:37:53.459Z,19.80
2022-09-04T20:40:31.356Z,19.80
2022-09-04T20:43:20.408Z,19.80
2022-09-04T20:50:57.750Z,19.80
2022-09-04T20:52:53.855Z,19.60
2022-09-04T20:53:05.608Z,19.70
2022-09-04T20:55:15.014Z,19.60
2022-09-04T21:03:14.204Z,19.60
2022-09-04T21:03:19.734Z,19.60
2022-09-04T21:04:04.665Z,19.50
2022-09-04T21:06:39.843Z,19.40
2022-09-04T21:09:22.692Z,19.40
2022-09-04T21:11:56.374Z,19.40
2022-09-04T21:14:44.704Z,19.40
2022-09-04T21:17:39.031Z,19.30
2022-09-04T21:20:30.609Z,19.20
2022-09-04T21:23:26.245Z,19.20
2022-09-04T21:26:06.262Z,19.20
2022-09-04T21:29:10.682Z,19.10
2022-09-04T21:32:08.729Z,19.10
2022-09-04T21:34:55.542Z,19.00
2022-09-04T21:37:30.586Z,19.10
2022-09-04T21:40:50.071Z,19.00
2022-09-04T21:43:46.315Z,19.00
2022-09-04T21:46:30.664Z,19.00
2022-09-04T21:49:32.161Z,19.00
2022-09-04T21:52:28.950Z,19.00
2022-09-04T21:57:57.758Z,18.90
2022-09-04T22:02:28.550Z,18.90
2022-09-04T22:02:35.693Z,18.90
2022-09-04T22:04:32.002Z,18.90
2022-09-04T22:09:25.467Z,19.00
2022-09-04T22:13:28.521Z,18.90
2022-09-04T22:13:41.040Z,18.90
2022-09-04T22:16:26.041Z,18.80
2022-09-04T22:19:16.223Z,18.90
2022-09-04T22:22:09.212Z,18.80
2022-09-04T22:25:01.194Z,18.80
2022-09-04T22:28:07.819Z,18.80
2022-09-04T22:30:54.928Z,18.80
2022-09-04T22:34:11.771Z,18.80
2022-09-04T22:37:04.698Z,18.90
2022-09-04T22:40:08.370Z,18.80
2022-09-04T22:42:51.857Z,18.90
2022-09-04T22:45:51.654Z,19.00
2022-09-04T22:48:57.719Z,18.90
2022-09-04T22:52:00.899Z,18.90
2022-09-04T22:54:53.795Z,18.90
2022-09-04T22:57:28.469Z,18.90
2022-09-04T23:00:09.949Z,19.00
2022-09-04T23:03:10.542Z,19.00
2022-09-04T23:07:00.687Z,19.00
2022-09-04T23:13:46.412Z,19.00
2022-09-04T23:13:49.991Z,19.00
2022-09-04T23:15:33.279Z,19.10
2022-09-04T23:21:34.032Z,19.00
2022-09-04T23:26:32.320Z,19.00
2022-09-04T23:26:48.840Z,19.00
2022-09-04T23:27:30.305Z,19.00
2022-09-04T23:30:25.735Z,19.00
2022-09-04T23:33:39.076Z,19.00
2022-09-04T23:36:36.041Z,19.00
2022-09-04T23:39:33.274Z,18.90
2022-09-04T23:42:17.754Z,19.00
2022-09-04T23:45:01.264Z,18.90
2022-09-04T23:47:52.998Z,18.90
2022-09-04T23:50:31.243Z,18.90
2022-09-04T23:53:09.045Z,18.90
2022-09-04T23:56:02.460Z,18.80
2022-09-04T23:59:02.996Z,18.80
